Time;durP1;ratioP1;P1;durP2;ratioP2;P2;SDS_P1;SDS_P2;PMS_P1;PMS_P2;Temp;Humidity;BMP_temperature;BMP_pressure;BME280_temperature;BME280_humidity;BME280_pressure;Samples;Min_cycle;Max_cycle;Signal;HPM_P1;HPM_P2
2022/08/12 00:45:09;;;;;;;0.77;0.77;;;;;;;;;;5021022;28;89293;-53
2022/08/12 00:47:37;;;;;;;1.90;0.67;;;;;;;;;;5002742;28;89001;-54
2022/08/12 00:50:06;;;;;;;2.20;0.77;;;;;;;;;;5001220;28;87878;-53
2022/08/12 00:52:34;;;;;;;0.90;0.60;;;;;;;;;;5002526;28;87209;-53
2022/08/12 00:55:03;;;;;;;6.13;1.17;;;;;;;;;;5020795;28;89048;-54
2022/08/12 00:57:34;;;;;;;1.30;1.17;;;;;;;;;;5021302;28;87797;-53
2022/08/12 01:00:07;;;;;;;1.67;0.83;;;;;;;;;;5022501;28;86896;-53
2022/08/12 01:02:36;;;;;;;1.47;1.10;;;;;;;;;;5020819;28;87140;-53
2022/08/12 01:13:24;;;;;;;1.70;1.30;;;;;;;;;;5021866;28;87770;-53
2022/08/12 01:15:54;;;;;;;1.67;1.37;;;;;;;;;;5016849;28;90324;-53
2022/08/12 01:18:23;;;;;;;1.40;1.30;;;;;;;;;;5012684;28;89891;-53
2022/08/12 01:20:54;;;;;;;1.77;1.30;;;;;;;;;;5022082;28;87058;-53
2022/08/12 01:23:37;;;;;;;1.87;1.73;;;;;;;;;;5019202;28;87022;-53
2022/08/12 01:26:08;;;;;;;1.83;1.53;;;;;;;;;;5018601;28;89148;-53
2022/08/12 01:28:36;;;;;;;2.20;1.40;;;;;;;;;;5020103;28;88761;-53
2022/08/12 01:31:05;;;;;;;1.30;1.17;;;;;;;;;;5021368;28;87040;-53
2022/08/12 01:33:35;;;;;;;1.90;1.50;;;;;;;;;;5022004;28;86969;-53
2022/08/12 01:36:05;;;;;;;2.13;1.53;;;;;;;;;;5021180;28;89219;-53
2022/08/12 01:38:36;;;;;;;2.30;1.60;;;;;;;;;;5021375;28;88817;-53
2022/08/12 01:41:04;;;;;;;2.13;1.73;;;;;;;;;;5020671;28;87952;-53
2022/08/12 01:43:34;;;;;;;2.27;1.47;;;;;;;;;;5021201;28;87071;-53
2022/08/12 01:46:04;;;;;;;1.97;1.70;;;;;;;;;;5021142;28;89074;-53
2022/08/12 01:48:38;;;;;;;3.90;1.90;;;;;;;;;;5006509;28;88960;-53
2022/08/12 01:51:10;;;;;;;2.27;1.87;;;;;;;;;;5020801;28;86987;-53
2022/08/12 01:54:03;;;;;;;2.90;1.93;;;;;;;;;;5021132;28;87110;-53
2022/08/12 01:56:33;;;;;;;2.53;2.00;;;;;;;;;;5020625;28;89189;-53
2022/08/12 02:01:48;;;;;;;4.07;2.00;;;;;;;;;;5013442;28;87235;-54
2022/08/12 02:13:04;;;;;;;2.27;2.07;;;;;;;;;;5005691;28;87243;-53
2022/08/12 02:15:36;;;;;;;2.53;1.77;;;;;;;;;;5012154;28;88149;-53
2022/08/12 02:18:07;;;;;;;2.80;1.73;;;;;;;;;;5020621;28;87949;-55
2022/08/12 02:20:37;;;;;;;2.57;1.80;;;;;;;;;;5015648;28;87162;-54
2022/08/12 02:23:21;;;;;;;2.80;1.70;;;;;;;;;;5010296;28;87130;-54
2022/08/12 02:25:50;;;;;;;5.23;1.30;;;;;;;;;;5013340;28;86331;-54
2022/08/12 02:28:19;;;;;;;3.00;2.13;;;;;;;;;;5011411;28;89447;-54
2022/08/12 02:30:49;;;;;;;3.63;1.33;;;;;;;;;;5010559;28;87982;-54
2022/08/12 02:33:18;;;;;;;1.57;1.30;;;;;;;;;;5015673;28;88052;-54
2022/08/12 02:35:46;;;;;;;1.87;1.40;;;;;;;;;;5017335;28;87013;-53
2022/08/12 02:38:15;;;;;;;1.30;1.20;;;;;;;;;;5011650;28;89159;-54
2022/08/12 02:40:44;;;;;;;2.17;1.47;;;;;;;;;;5014969;28;90702;-54
2022/08/12 02:43:12;;;;;;;1.53;1.13;;;;;;;;;;5021124;28;88746;-54
2022/08/12 02:45:44;;;;;;;1.27;1.17;;;;;;;;;;5014496;28;87038;-54
2022/08/12 02:48:15;;;;;;;2.10;1.47;;;;;;;;;;5016583;28;87979;-54
2022/08/12 02:50:45;;;;;;;1.70;1.60;;;;;;;;;;5017101;28;88921;-54
2022/08/12 02:53:13;;;;;;;1.60;1.27;;;;;;;;;;5016363;28;87053;-54
2022/08/12 02:55:44;;;;;;;1.47;1.10;;;;;;;;;;5013767;28;88291;-53
2022/08/12 02:58:12;;;;;;;1.40;0.97;;;;;;;;;;5016595;28;87957;-53
2022/08/12 03:00:42;;;;;;;1.73;1.40;;;;;;;;;;5012164;28;89679;-53
2022/08/12 03:03:11;;;;;;;1.40;1.10;;;;;;;;;;5016787;28;88698;-53
2022/08/12 03:05:45;;;;;;;1.40;1.30;;;;;;;;;;5015774;28;87151;-53
2022/08/12 03:08:13;;;;;;;2.47;1.50;;;;;;;;;;5015220;28;89433;-54
2022/08/12 03:11:00;;;;;;;1.97;1.53;;;;;;;;;;5015779;28;88906;-53
2022/08/12 03:13:28;;;;;;;1.73;1.43;;;;;;;;;;5016005;28;89012;-54
2022/08/12 03:15:57;;;;;;;1.93;1.60;;;;;;;;;;5011627;28;86331;-53
2022/08/12 03:18:28;;;;;;;1.80;1.67;;;;;;;;;;5006486;28;88317;-55
2022/08/12 03:20:58;;;;;;;3.50;1.97;;;;;;;;;;5022358;28;89062;-53
2022/08/12 03:23:26;;;;;;;2.10;1.80;;;;;;;;;;5021338;28;87985;-54
2022/08/12 03:25:59;;;;;;;4.13;1.70;;;;;;;;;;5021757;28;87094;-53
2022/08/12 03:31:14;;;;;;;3.50;1.83;;;;;;;;;;5023334;28;87825;-54
2022/08/12 03:33:43;;;;;;;2.80;2.10;;;;;;;;;;5023234;28;87149;-53
2022/08/12 03:36:32;;;;;;;3.77;2.07;;;;;;;;;;5023758;28;87060;-53
2022/08/12 03:41:57;;;;;;;2.43;2.00;;;;;;;;;;5063930;27;81717;-53
2022/08/12 04:01:07;;;;;;;2.17;1.40;;;;;;;;;;5040362;28;83734;-53
2022/08/12 04:03:54;;;;;;;2.27;1.63;;;;;;;;;;5041124;28;83162;-53
2022/08/12 04:06:23;;;;;;;3.90;1.60;;;;;;;;;;5041160;28;81646;-53
2022/08/12 04:09:03;;;;;;;2.47;1.20;;;;;;;;;;5040344;27;81798;-53
2022/08/12 04:14:31;;;;;;;2.80;1.77;;;;;;;;;;5041093;27;82207;-53
2022/08/12 04:16:59;;;;;;;2.87;1.40;;;;;;;;;;5057247;27;82151;-53
2022/08/12 04:19:27;;;;;;;3.53;1.53;;;;;;;;;;5049403;27;81712;-53
2022/08/12 04:21:56;;;;;;;3.63;1.80;;;;;;;;;;5040512;27;82996;-53
2022/08/12 04:24:30;;;;;;;3.67;1.50;;;;;;;;;;5041603;27;83345;-52
2022/08/12 04:26:58;;;;;;;1.20;1.03;;;;;;;;;;5040824;27;81705;-53
2022/08/12 04:29:26;;;;;;;1.00;0.90;;;;;;;;;;5041921;27;81662;-53
2022/08/12 04:32:16;;;;;;;1.40;1.30;;;;;;;;;;5059172;27;82457;-54
2022/08/12 04:34:44;;;;;;;1.10;1.03;;;;;;;;;;5045502;27;82417;-54
2022/08/12 04:37:14;;;;;;;2.57;0.97;;;;;;;;;;5054849;27;81691;-54
2022/08/12 04:39:43;;;;;;;1.07;0.90;;;;;;;;;;5046191;27;81683;-54
2022/08/12 04:42:11;;;;;;;1.00;0.90;;;;;;;;;;5040228;27;83843;-53
2022/08/12 04:44:41;;;;;;;1.90;0.77;;;;;;;;;;5054793;27;81729;-53
2022/08/12 04:47:11;;;;;;;0.93;0.90;;;;;;;;;;5059139;27;82182;-53
2022/08/12 04:49:40;;;;;;;1.13;0.80;;;;;;;;;;5046466;27;81735;-53
2022/08/12 04:52:09;;;;;;;2.00;0.90;;;;;;;;;;5033307;27;82968;-53
2022/08/12 04:54:37;;;;;;;1.43;0.80;;;;;;;;;;5037856;28;82680;-53
2022/08/12 04:57:08;;;;;;;1.10;1.00;;;;;;;;;;5033629;27;81640;-53
2022/08/12 04:59:37;;;;;;;1.30;1.10;;;;;;;;;;5026662;28;81731;-53
2022/08/12 05:02:15;;;;;;;2.50;0.90;;;;;;;;;;5031498;28;82763;-53
2022/08/12 05:04:51;;;;;;;0.90;0.70;;;;;;;;;;5032100;27;82700;-53
2022/08/12 05:07:20;;;;;;;1.37;0.90;;;;;;;;;;5041255;27;81842;-53
2022/08/12 05:09:48;;;;;;;1.23;1.13;;;;;;;;;;5047017;27;81566;-53
2022/08/12 05:12:28;;;;;;;0.90;0.77;;;;;;;;;;5047419;27;83612;-53
2022/08/12 05:14:58;;;;;;;2.37;1.20;;;;;;;;;;5030499;27;81792;-53
2022/08/12 05:17:26;;;;;;;0.70;0.70;;;;;;;;;;5027514;28;81759;-52
2022/08/12 05:19:56;;;;;;;0.90;0.90;;;;;;;;;;5029179;28;81765;-55
2022/08/12 05:22:25;;;;;;;3.53;0.90;;;;;;;;;;5045923;27;81752;-53
2022/08/12 05:24:53;;;;;;;0.87;0.70;;;;;;;;;;5046110;27;82388;-52
2022/08/12 05:27:22;;;;;;;0.70;0.70;;;;;;;;;;5046127;28;82278;-53
2022/08/12 05:29:50;;;;;;;2.40;1.00;;;;;;;;;;5044485;27;81784;-53
2022/08/12 05:32:36;;;;;;;1.40;0.90;;;;;;;;;;5033459;28;82985;-53
2022/08/12 05:35:06;;;;;;;0.80;0.60;;;;;;;;;;5042713;27;82950;-53
2022/08/12 05:37:35;;;;;;;0.93;0.83;;;;;;;;;;5028684;27;81608;-53
2022/08/12 05:40:04;;;;;;;1.50;0.70;;;;;;;;;;5025736;28;84063;-52
2022/08/12 05:42:38;;;;;;;0.90;0.80;;;;;;;;;;5026119;28;81836;-53
2022/08/12 05:45:06;;;;;;;1.03;0.77;;;;;;;;;;5041427;28;82231;-53
2022/08/12 05:47:35;;;;;;;2.37;0.97;;;;;;;;;;5046341;27;82258;-53
2022/08/12 05:50:22;;;;;;;0.70;0.70;;;;;;;;;;5045082;27;81650;-53
2022/08/12 05:52:50;;;;;;;0.70;0.70;;;;;;;;;;5045477;28;83991;-53
2022/08/12 05:55:21;;;;;;;1.13;0.70;;;;;;;;;;5041781;27;83212;-53
2022/08/12 05:57:54;;;;;;;0.90;0.90;;;;;;;;;;5031391;27;82242;-53
2022/08/12 06:00:24;;;;;;;0.90;0.73;;;;;;;;;;5032302;28;81764;-53
2022/08/12 06:02:55;;;;;;;1.13;0.60;;;;;;;;;;5030085;27;82770;-53
2022/08/12 06:05:25;;;;;;;0.80;0.80;;;;;;;;;;5025122;28;82194;-53
2022/08/12 06:07:54;;;;;;;1.70;0.90;;;;;;;;;;5025598;28;81720;-54
2022/08/12 06:10:30;;;;;;;0.53;0.53;;;;;;;;;;5025445;28;81646;-53
2022/08/12 06:13:01;;;;;;;1.67;0.80;;;;;;;;;;5025717;28;82784;-56
2022/08/12 06:15:29;;;;;;;1.23;0.70;;;;;;;;;;5025454;28;82301;-53
2022/08/12 06:18:04;;;;;;;0.60;0.60;;;;;;;;;;5025394;28;81520;-53
2022/08/12 06:20:46;;;;;;;1.10;0.53;;;;;;;;;;5039998;28;81959;-53
2022/08/12 06:23:14;;;;;;;0.73;0.73;;;;;;;;;;5025575;28;81606;-54
2022/08/12 06:25:43;;;;;;;1.07;0.90;;;;;;;;;;5025718;28;83523;-53
2022/08/12 06:28:16;;;;;;;0.70;0.70;;;;;;;;;;5028662;28;81758;-54
2022/08/12 06:30:45;;;;;;;0.80;0.80;;;;;;;;;;5025343;28;81663;-53
2022/08/12 06:33:33;;;;;;;0.50;0.50;;;;;;;;;;5025562;28;81599;-53
2022/08/12 06:36:23;;;;;;;1.00;0.63;;;;;;;;;;5027014;28;85081;-54
2022/08/12 06:38:57;;;;;;;0.77;0.70;;;;;;;;;;5025197;28;81706;-53
2022/08/12 06:44:31;;;;;;;0.83;0.83;;;;;;;;;;5029214;28;85559;-54
2022/08/12 06:47:00;;;;;;;3.63;0.83;;;;;;;;;;5034235;27;81522;-53
2022/08/12 06:49:32;;;;;;;0.77;0.63;;;;;;;;;;5039549;28;81826;-53
2022/08/12 06:52:03;;;;;;;0.70;0.63;;;;;;;;;;5040495;27;81626;-54
2022/08/12 06:54:32;;;;;;;1.23;0.80;;;;;;;;;;5044675;27;84082;-53
2022/08/12 06:57:00;;;;;;;0.80;0.73;;;;;;;;;;5044624;27;81585;-53
2022/08/12 06:59:34;;;;;;;0.97;0.87;;;;;;;;;;5035491;27;81733;-53
2022/08/12 07:02:02;;;;;;;1.97;0.77;;;;;;;;;;5065809;27;81686;-54
2022/08/12 07:04:31;;;;;;;0.70;0.70;;;;;;;;;;5054410;27;83968;-54
2022/08/12 07:07:06;;;;;;;2.77;1.23;;;;;;;;;;5045339;27;84623;-54
2022/08/12 07:09:35;;;;;;;1.20;0.80;;;;;;;;;;5044764;27;82425;-54
2022/08/12 07:12:25;;;;;;;4.57;0.60;;;;;;;;;;5039773;27;82691;-54
2022/08/12 07:14:56;;;;;;;1.20;0.70;;;;;;;;;;5040062;28;81780;-54
2022/08/12 07:17:24;;;;;;;0.77;0.60;;;;;;;;;;5024114;27;82483;-53
2022/08/12 07:19:53;;;;;;;0.97;0.87;;;;;;;;;;5033946;28;82441;-53
2022/08/12 07:22:29;;;;;;;0.57;0.50;;;;;;;;;;5044269;27;81665;-53
2022/08/12 07:27:45;;;;;;;2.00;0.80;;;;;;;;;;5044456;27;82338;-53
2022/08/12 07:30:14;;;;;;;0.93;0.80;;;;;;;;;;5045217;27;81905;-54
2022/08/12 07:32:50;;;;;;;2.67;1.23;;;;;;;;;;5044725;27;81801;-54
2022/08/12 07:35:19;;;;;;;1.07;0.80;;;;;;;;;;5044588;27;82749;-53
2022/08/12 07:37:49;;;;;;;1.97;0.87;;;;;;;;;;5045003;27;82223;-53
2022/08/12 07:40:17;;;;;;;1.10;0.90;;;;;;;;;;5044454;27;81540;-53
2022/08/12 07:42:46;;;;;;;0.70;0.60;;;;;;;;;;5044961;28;81754;-53
2022/08/12 07:45:14;;;;;;;1.23;0.80;;;;;;;;;;5044706;27;83067;-53
2022/08/12 07:47:43;;;;;;;0.90;0.90;;;;;;;;;;5044680;28;84698;-54
2022/08/12 07:50:11;;;;;;;2.47;1.00;;;;;;;;;;5044523;27;81623;-53
2022/08/12 07:52:41;;;;;;;1.30;0.90;;;;;;;;;;5045046;27;81627;-55
2022/08/12 07:55:11;;;;;;;0.67;0.67;;;;;;;;;;5044848;27;83840;-53
2022/08/12 07:57:48;;;;;;;2.10;0.90;;;;;;;;;;5043907;28;84101;-53
2022/08/12 08:00:17;;;;;;;0.80;0.77;;;;;;;;;;5044395;27;83776;-53
2022/08/12 08:02:45;;;;;;;1.00;0.90;;;;;;;;;;5044377;27;81806;-54
2022/08/12 08:05:14;;;;;;;1.10;1.00;;;;;;;;;;5043813;28;83932;-52
2022/08/12 08:07:43;;;;;;;1.03;1.00;;;;;;;;;;5043300;27;85276;-52
2022/08/12 08:10:12;;;;;;;1.17;0.63;;;;;;;;;;5043816;28;84729;-53
2022/08/12 08:12:52;;;;;;;3.17;1.00;;;;;;;;;;5043526;27;82066;-52
2022/08/12 08:15:21;;;;;;;1.40;1.10;;;;;;;;;;5043183;27;83249;-54
2022/08/12 08:18:10;;;;;;;3.27;1.30;;;;;;;;;;5043435;27;82524;-54
2022/08/12 08:20:43;;;;;;;0.70;0.60;;;;;;;;;;5043326;27;82823;-53
2022/08/12 08:23:12;;;;;;;0.97;0.97;;;;;;;;;;5043259;27;82005;-52
2022/08/12 08:25:42;;;;;;;1.37;0.97;;;;;;;;;;5043268;28;84042;-53
2022/08/12 08:28:11;;;;;;;1.97;1.10;;;;;;;;;;5045792;27;83213;-53
2022/08/12 08:30:42;;;;;;;0.77;0.77;;;;;;;;;;5047059;28;83978;-54
2022/08/12 08:33:11;;;;;;;1.37;0.87;;;;;;;;;;5046546;27;82784;-53
2022/08/12 08:35:59;;;;;;;1.93;0.90;;;;;;;;;;5046751;27;82529;-53
2022/08/12 08:38:29;;;;;;;4.63;1.33;;;;;;;;;;5046999;28;84174;-53
2022/08/12 08:44:10;;;;;;;1.40;1.10;;;;;;;;;;5046875;27;81825;-53
2022/08/12 08:46:39;;;;;;;0.93;0.90;;;;;;;;;;5046530;27;83848;-53
2022/08/12 08:49:07;;;;;;;1.77;0.93;;;;;;;;;;5047098;27;82951;-53
2022/08/12 08:51:36;;;;;;;1.13;1.00;;;;;;;;;;5046592;27;83722;-53
2022/08/12 08:54:05;;;;;;;1.23;1.00;;;;;;;;;;5046909;27;81904;-53
2022/08/12 08:56:42;;;;;;;1.00;1.00;;;;;;;;;;5046229;27;82640;-53
2022/08/12 08:59:11;;;;;;;1.10;1.00;;;;;;;;;;5045919;27;84242;-53
2022/08/12 09:01:39;;;;;;;1.93;1.03;;;;;;;;;;5046587;28;83488;-53
2022/08/12 09:04:11;;;;;;;0.97;0.83;;;;;;;;;;5046389;27;82920;-52
2022/08/12 09:07:01;;;;;;;0.90;0.87;;;;;;;;;;5045777;27;82020;-53
2022/08/12 09:09:50;;;;;;;1.17;0.90;;;;;;;;;;5046215;27;85559;-53
2022/08/12 09:15:22;;;;;;;1.27;0.87;;;;;;;;;;5046372;27;81878;-53
2022/08/12 09:18:04;;;;;;;1.07;0.97;;;;;;;;;;5046528;27;82871;-53
2022/08/12 09:20:37;;;;;;;2.10;0.90;;;;;;;;;;5046165;27;82041;-53
2022/08/12 09:23:09;;;;;;;1.00;0.90;;;;;;;;;;5046629;28;82642;-53
2022/08/12 09:25:59;;;;;;;1.27;0.97;;;;;;;;;;5045953;27;82710;-53
2022/08/12 09:28:34;;;;;;;1.10;1.00;;;;;;;;;;5045964;27;83852;-53
2022/08/12 09:31:12;;;;;;;2.97;0.80;;;;;;;;;;5046510;27;83136;-54
2022/08/12 09:34:00;;;;;;;2.50;1.00;;;;;;;;;;5046335;27;85308;-53
2022/08/12 09:36:48;;;;;;;1.73;1.20;;;;;;;;;;5046003;27;81820;-53
2022/08/12 09:39:28;;;;;;;1.37;1.00;;;;;;;;;;5046030;27;82870;-53
2022/08/12 09:45:24;;;;;;;1.43;1.20;;;;;;;;;;5045528;27;82465;-53
2022/08/12 09:48:15;;;;;;;1.57;0.90;;;;;;;;;;5045568;27;81823;-52
2022/08/12 09:50:49;;;;;;;1.40;1.00;;;;;;;;;;5044944;27;83972;-53
2022/08/12 09:53:22;;;;;;;0.90;0.90;;;;;;;;;;5045412;27;85044;-53
2022/08/12 09:56:06;;;;;;;2.00;1.00;;;;;;;;;;5045597;27;83670;-54
2022/08/12 09:58:54;;;;;;;0.90;0.90;;;;;;;;;;5045376;27;81887;-53
2022/08/12 10:01:30;;;;;;;1.03;0.93;;;;;;;;;;5045095;27;82586;-53
2022/08/12 10:04:04;;;;;;;0.80;0.80;;;;;;;;;;5045418;28;84035;-54
2022/08/12 10:06:33;;;;;;;1.87;1.00;;;;;;;;;;5045421;27;84428;-54
2022/08/12 10:09:21;;;;;;;1.30;1.20;;;;;;;;;;5045570;27;81654;-52
2022/08/12 10:14:58;;;;;;;2.80;1.10;;;;;;;;;;5045711;27;83010;-53
2022/08/12 10:17:28;;;;;;;1.77;1.00;;;;;;;;;;5045395;27;81942;-53
2022/08/12 10:19:56;;;;;;;0.83;0.83;;;;;;;;;;5045021;27;82959;-53
2022/08/12 10:22:29;;;;;;;1.30;1.10;;;;;;;;;;5045390;27;83959;-53
2022/08/12 10:31:00;;;;;;;1.00;1.00;;;;;;;;;;5045384;27;81966;-53
2022/08/12 10:33:33;;;;;;;1.40;1.00;;;;;;;;;;5045217;27;83804;-53
2022/08/12 10:36:23;;;;;;;0.77;0.77;;;;;;;;;;5045405;27;82526;-53
2022/08/12 10:39:10;;;;;;;1.10;0.97;;;;;;;;;;5045131;27;83878;-53
2022/08/12 10:44:59;;;;;;;1.23;0.90;;;;;;;;;;5044849;27;84114;-53
2022/08/12 10:47:28;;;;;;;1.90;1.10;;;;;;;;;;5043931;27;83906;-53
2022/08/12 10:50:21;;;;;;;1.70;1.10;;;;;;;;;;5044170;27;82345;-53
2022/08/12 10:53:02;;;;;;;0.80;0.80;;;;;;;;;;5044734;27;81926;-53
2022/08/12 10:55:35;;;;;;;0.93;0.83;;;;;;;;;;5045254;27;83794;-53
2022/08/12 10:58:04;;;;;;;1.00;0.90;;;;;;;;;;5044303;27;83194;-53
2022/08/12 11:00:52;;;;;;;3.13;1.00;;;;;;;;;;5044871;27;82150;-54
2022/08/12 11:03:40;;;;;;;0.70;0.70;;;;;;;;;;5044546;27;81984;-53
2022/08/12 11:06:30;;;;;;;0.83;0.83;;;;;;;;;;5045475;27;84306;-53
2022/08/12 11:09:18;;;;;;;1.23;1.13;;;;;;;;;;5044381;27;82903;-53
2022/08/12 11:12:07;;;;;;;1.40;1.30;;;;;;;;;;5044300;27;84782;-53
2022/08/12 11:14:56;;;;;;;0.80;0.80;;;;;;;;;;5044075;27;82866;-53
2022/08/12 11:17:27;;;;;;;0.80;0.80;;;;;;;;;;5044458;27;83858;-53
2022/08/12 11:20:15;;;;;;;1.13;1.03;;;;;;;;;;5043965;27;82954;-54
2022/08/12 11:22:45;;;;;;;1.57;0.93;;;;;;;;;;5044359;28;83842;-53
2022/08/12 11:25:26;;;;;;;1.60;1.00;;;;;;;;;;5044424;27;81737;-53
2022/08/12 11:28:14;;;;;;;1.50;1.00;;;;;;;;;;5043932;27;82285;-53
2022/08/12 11:30:43;;;;;;;0.90;0.73;;;;;;;;;;5043686;27;83157;-53
2022/08/12 11:33:11;;;;;;;1.10;0.87;;;;;;;;;;5044480;27;82907;-53
2022/08/12 11:36:06;;;;;;;0.83;0.83;;;;;;;;;;5044474;27;81876;-55
2022/08/12 11:38:43;;;;;;;1.30;0.90;;;;;;;;;;5044171;27;82720;-54
2022/08/12 11:41:18;;;;;;;0.97;0.93;;;;;;;;;;5043319;27;84081;-54
2022/08/12 11:43:59;;;;;;;1.10;1.07;;;;;;;;;;5043894;27;84988;-53
2022/08/12 11:46:48;;;;;;;0.77;0.77;;;;;;;;;;5043971;27;82971;-53
2022/08/12 11:49:20;;;;;;;1.20;1.10;;;;;;;;;;5043665;27;81723;-54
2022/08/12 11:51:59;;;;;;;1.17;0.80;;;;;;;;;;5043540;27;83003;-54
2022/08/12 11:54:29;;;;;;;0.93;0.87;;;;;;;;;;5044125;28;83994;-54
2022/08/12 11:56:58;;;;;;;1.17;0.90;;;;;;;;;;5044120;27;81887;-53
2022/08/12 11:59:30;;;;;;;2.70;0.90;;;;;;;;;;5043593;27;84030;-54
2022/08/12 12:02:18;;;;;;;1.00;0.90;;;;;;;;;;5045507;27;82662;-53
2022/08/12 12:04:48;;;;;;;1.27;1.17;;;;;;;;;;5047679;27;83934;-54
2022/08/12 12:07:21;;;;;;;1.60;1.30;;;;;;;;;;5046666;27;82916;-54
2022/08/12 12:10:11;;;;;;;2.90;1.00;;;;;;;;;;5046615;27;82728;-53
2022/08/12 12:12:40;;;;;;;0.73;0.73;;;;;;;;;;5046955;27;81886;-54
2022/08/12 12:15:17;;;;;;;1.27;0.93;;;;;;;;;;5047202;27;82771;-53
2022/08/12 12:17:53;;;;;;;1.00;0.90;;;;;;;;;;5047163;27;81831;-54
2022/08/12 12:20:23;;;;;;;1.20;1.10;;;;;;;;;;5047003;27;84032;-54
2022/08/12 12:22:54;;;;;;;1.17;1.07;;;;;;;;;;5046961;27;81998;-54
2022/08/12 12:25:24;;;;;;;1.10;1.00;;;;;;;;;;5047374;27;82723;-53
2022/08/12 12:28:13;;;;;;;1.07;0.97;;;;;;;;;;5046711;27;81864;-54
2022/08/12 12:31:01;;;;;;;1.53;1.13;;;;;;;;;;5046582;27;82681;-53
2022/08/12 12:33:31;;;;;;;1.17;1.03;;;;;;;;;;5046313;27;85284;-54
2022/08/12 12:36:19;;;;;;;1.00;0.90;;;;;;;;;;5046561;27;82170;-53
2022/08/12 12:38:57;;;;;;;1.37;1.20;;;;;;;;;;5046626;27;81812;-54
2022/08/12 12:41:29;;;;;;;1.73;1.20;;;;;;;;;;5046407;27;82607;-54
2022/08/12 12:44:17;;;;;;;1.10;1.00;;;;;;;;;;5047218;27;81853;-53
2022/08/12 12:47:05;;;;;;;1.17;0.80;;;;;;;;;;5046507;27;83806;-54
2022/08/12 12:49:53;;;;;;;1.63;1.00;;;;;;;;;;5046509;27;81850;-54
2022/08/12 12:52:22;;;;;;;1.17;1.03;;;;;;;;;;5046375;27;81723;-53
2022/08/12 12:54:54;;;;;;;1.00;0.90;;;;;;;;;;5046397;27;84190;-54
2022/08/12 12:57:24;;;;;;;1.13;0.90;;;;;;;;;;5046238;27;83810;-53
2022/08/12 13:00:17;;;;;;;1.37;1.10;;;;;;;;;;5045570;27;82838;-55
2022/08/12 13:02:51;;;;;;;0.87;0.87;;;;;;;;;;5046396;27;83324;-53
2022/08/12 13:05:22;;;;;;;1.67;0.87;;;;;;;;;;5046277;27;83065;-54
2022/08/12 13:07:55;;;;;;;2.17;0.80;;;;;;;;;;5046311;27;81807;-53
2022/08/12 13:10:28;;;;;;;1.20;1.00;;;;;;;;;;5046210;27;82135;-52
2022/08/12 13:13:01;;;;;;;0.90;0.90;;;;;;;;;;5045954;27;83836;-54
2022/08/12 13:15:49;;;;;;;2.70;1.10;;;;;;;;;;5046502;27;82879;-55
2022/08/12 13:18:18;;;;;;;2.00;1.40;;;;;;;;;;5046483;27;82798;-53
2022/08/12 13:20:56;;;;;;;0.93;0.90;;;;;;;;;;5046266;27;81860;-53
2022/08/12 13:23:26;;;;;;;1.00;0.90;;;;;;;;;;5046472;27;82872;-54
2022/08/12 13:26:06;;;;;;;1.37;1.27;;;;;;;;;;5045680;27;83775;-54
2022/08/12 13:28:44;;;;;;;1.83;1.40;;;;;;;;;;5046196;27;82303;-54
2022/08/12 13:31:20;;;;;;;1.77;1.10;;;;;;;;;;5045716;27;81928;-53
2022/08/12 13:33:52;;;;;;;1.10;1.00;;;;;;;;;;5045404;27;82972;-54
2022/08/12 13:36:41;;;;;;;1.50;1.40;;;;;;;;;;5045539;27;82844;-54
2022/08/12 13:39:09;;;;;;;2.37;0.90;;;;;;;;;;5045641;28;84016;-54
2022/08/12 13:41:38;;;;;;;1.07;0.97;;;;;;;;;;5045718;27;81946;-53
2022/08/12 13:44:08;;;;;;;0.93;0.83;;;;;;;;;;5046240;27;82849;-54
2022/08/12 13:46:39;;;;;;;1.70;0.93;;;;;;;;;;5045814;27;82998;-53
2022/08/12 13:49:12;;;;;;;0.80;0.80;;;;;;;;;;5045887;27;82442;-54
2022/08/12 13:51:52;;;;;;;0.93;0.93;;;;;;;;;;5045066;27;82881;-54
2022/08/12 13:54:21;;;;;;;2.63;1.20;;;;;;;;;;5045267;27;81849;-54
2022/08/12 13:56:49;;;;;;;4.93;1.40;;;;;;;;;;5045750;27;82847;-54
2022/08/12 13:59:22;;;;;;;3.03;1.00;;;;;;;;;;5045405;27;82950;-54
2022/08/12 14:01:53;;;;;;;1.43;1.23;;;;;;;;;;5045793;27;82070;-53
2022/08/12 14:04:24;;;;;;;1.13;1.03;;;;;;;;;;5045687;27;83851;-54
2022/08/12 14:06:54;;;;;;;1.23;0.93;;;;;;;;;;5045158;27;83086;-54
2022/08/12 14:09:23;;;;;;;1.20;1.00;;;;;;;;;;5046451;27;83241;-55
2022/08/12 14:11:57;;;;;;;1.63;1.27;;;;;;;;;;5045746;27;81805;-54
2022/08/12 14:14:29;;;;;;;0.93;0.88;;;;;;;;;;5045480;27;82790;-53
2022/08/12 14:17:02;;;;;;;1.37;1.13;;;;;;;;;;5045017;27;83905;-54
2022/08/12 14:19:35;;;;;;;1.10;1.00;;;;;;;;;;5045040;28;82349;-54
2022/08/12 14:22:21;;;;;;;2.23;1.10;;;;;;;;;;5045138;27;81833;-54
2022/08/12 14:24:53;;;;;;;0.83;0.83;;;;;;;;;;5043841;27;83593;-53
2022/08/12 14:27:24;;;;;;;1.43;1.10;;;;;;;;;;5044858;27;82092;-54
2022/08/12 14:30:14;;;;;;;1.20;1.00;;;;;;;;;;5044774;27;82383;-54
2022/08/12 14:32:56;;;;;;;1.50;1.10;;;;;;;;;;5044668;27;81934;-54
2022/08/12 14:35:24;;;;;;;1.20;0.90;;;;;;;;;;5045494;27;82669;-54
2022/08/12 14:37:53;;;;;;;4.57;1.50;;;;;;;;;;5044714;27;82998;-53
2022/08/12 14:40:26;;;;;;;1.70;1.40;;;;;;;;;;5044106;27;82386;-54
2022/08/12 14:42:56;;;;;;;1.30;1.20;;;;;;;;;;5044377;27;82819;-54
2022/08/12 14:45:26;;;;;;;1.33;1.07;;;;;;;;;;5044495;27;82861;-54
2022/08/12 14:48:14;;;;;;;2.00;1.10;;;;;;;;;;5044957;27;82863;-54
2022/08/12 14:50:42;;;;;;;1.40;1.10;;;;;;;;;;5044148;28;83877;-53
2022/08/12 14:53:32;;;;;;;1.70;1.40;;;;;;;;;;5044131;27;82849;-53
2022/08/12 14:56:21;;;;;;;1.20;1.03;;;;;;;;;;5044752;28;81839;-54
2022/08/12 15:02:19;;;;;;;1.63;1.20;;;;;;;;;;5045088;27;85045;-54
2022/08/12 15:04:54;;;;;;;1.20;1.10;;;;;;;;;;5044567;27;81889;-54
2022/08/12 15:07:25;;;;;;;2.30;1.17;;;;;;;;;;5044040;27;82822;-53
2022/08/12 15:10:14;;;;;;;1.23;1.13;;;;;;;;;;5043737;27;82732;-53
2022/08/12 15:13:04;;;;;;;1.53;1.30;;;;;;;;;;5044609;27;82438;-53
2022/08/12 15:15:37;;;;;;;1.27;1.17;;;;;;;;;;5044391;27;81781;-52
2022/08/12 15:18:15;;;;;;;0.90;0.90;;;;;;;;;;5044537;27;82774;-53
2022/08/12 15:20:49;;;;;;;1.20;1.10;;;;;;;;;;5044321;27;83209;-53
2022/08/12 15:23:18;;;;;;;3.00;1.33;;;;;;;;;;5044083;27;83903;-53
2022/08/12 15:25:49;;;;;;;1.10;1.00;;;;;;;;;;5043573;27;81969;-53
2022/08/12 15:28:30;;;;;;;1.67;1.10;;;;;;;;;;5043902;28;83943;-54
2022/08/12 15:30:59;;;;;;;1.55;1.00;;;;;;;;;;5043247;27;81993;-52
2022/08/12 15:33:31;;;;;;;2.70;1.10;;;;;;;;;;5044244;27;82707;-53
2022/08/12 15:36:13;;;;;;;1.23;1.10;;;;;;;;;;5043342;27;82721;-53
2022/08/12 15:38:46;;;;;;;1.20;1.10;;;;;;;;;;5043857;27;83883;-55
2022/08/12 15:41:16;;;;;;;1.20;1.10;;;;;;;;;;5041787;27;83030;-55
2022/08/12 15:43:44;;;;;;;1.70;1.27;;;;;;;;;;5043970;27;82189;-55
2022/08/12 15:46:32;;;;;;;1.40;1.30;;;;;;;;;;5043925;27;82169;-53
2022/08/12 15:49:02;;;;;;;1.38;1.27;;;;;;;;;;5042817;27;82974;-54
2022/08/12 15:51:44;;;;;;;2.53;1.30;;;;;;;;;;5043254;27;82829;-54
2022/08/12 15:54:32;;;;;;;1.53;1.43;;;;;;;;;;5042781;27;82857;-53
2022/08/12 15:57:12;;;;;;;2.53;1.20;;;;;;;;;;5039879;28;81903;-54
2022/08/12 15:59:45;;;;;;;1.93;1.43;;;;;;;;;;5042323;27;82645;-53
2022/08/12 16:02:40;;;;;;;2.23;1.10;;;;;;;;;;5038805;28;86523;-53
2022/08/12 16:05:18;;;;;;;2.63;1.37;;;;;;;;;;5039550;28;82546;-53
2022/08/12 16:08:06;;;;;;;1.77;1.23;;;;;;;;;;5041877;28;81767;-53
2022/08/12 16:10:44;;;;;;;1.10;1.10;;;;;;;;;;5042041;27;82983;-53
2022/08/12 16:13:13;;;;;;;1.35;1.20;;;;;;;;;;5043395;27;83183;-53
2022/08/12 16:15:43;;;;;;;3.53;1.23;;;;;;;;;;5043713;27;82953;-53
2022/08/12 16:18:30;;;;;;;1.70;1.20;;;;;;;;;;5043934;27;81745;-53
2022/08/12 16:20:59;;;;;;;1.63;1.37;;;;;;;;;;5043990;28;82570;-53
2022/08/12 16:23:28;;;;;;;2.37;1.10;;;;;;;;;;5043111;27;83218;-55
2022/08/12 16:26:16;;;;;;;1.30;1.20;;;;;;;;;;5042997;27;82431;-53
2022/08/12 16:28:54;;;;;;;1.38;1.10;;;;;;;;;;5043021;27;82839;-54
2022/08/12 16:31:23;;;;;;;1.40;1.10;;;;;;;;;;5042783;27;83784;-53
2022/08/12 16:33:56;;;;;;;1.50;1.40;;;;;;;;;;5042917;27;84181;-53
2022/08/12 16:36:29;;;;;;;3.45;1.63;;;;;;;;;;5042998;27;81905;-53
2022/08/12 16:38:57;;;;;;;1.52;1.42;;;;;;;;;;5042940;27;81985;-53
2022/08/12 16:41:29;;;;;;;2.63;1.20;;;;;;;;;;5042526;27;82207;-53
2022/08/12 16:44:07;;;;;;;1.80;1.25;;;;;;;;;;5041240;27;82093;-53
2022/08/12 16:46:35;;;;;;;1.37;1.20;;;;;;;;;;5041644;27;82707;-54
2022/08/12 16:49:05;;;;;;;3.03;1.52;;;;;;;;;;5039003;28;82024;-56
2022/08/12 16:51:43;;;;;;;2.30;1.60;;;;;;;;;;5028814;28;82820;-53
2022/08/12 16:54:14;;;;;;;2.87;1.40;;;;;;;;;;5052246;27;83927;-54
2022/08/12 16:56:44;;;;;;;1.57;1.40;;;;;;;;;;5065826;27;83539;-53
2022/08/12 16:59:25;;;;;;;1.40;1.30;;;;;;;;;;5049551;27;81741;-54
2022/08/12 17:01:58;;;;;;;1.77;1.30;;;;;;;;;;5046428;27;82730;-55
2022/08/12 17:04:27;;;;;;;4.77;1.50;;;;;;;;;;5046336;28;84228;-54
2022/08/12 17:06:57;;;;;;;1.67;1.50;;;;;;;;;;5046038;27;82116;-54
2022/08/12 17:09:25;;;;;;;1.40;0.90;;;;;;;;;;5046428;28;81772;-54
2022/08/12 17:12:07;;;;;;;2.50;1.10;;;;;;;;;;5026536;28;82789;-54
2022/08/12 17:14:36;;;;;;;1.27;1.10;;;;;;;;;;5032372;28;83051;-55
2022/08/12 17:17:08;;;;;;;5.37;1.23;;;;;;;;;;5042027;27;82511;-55
2022/08/12 17:20:00;;;;;;;1.30;1.13;;;;;;;;;;5042250;28;83319;-54
2022/08/12 17:22:56;;;;;;;1.60;1.17;;;;;;;;;;5043694;28;82345;-55
2022/08/12 17:25:24;;;;;;;0.80;0.80;;;;;;;;;;5043169;27;83068;-55